Amavisti — V2CR5 — position and weather

sailwx.info

Track history (hours):
 
Tides and Currents Weather Stations Pressure Air Temp Water Temp Dewpoint Dewpoint Depression Visibility Wind Speed Wind Dir Waves Ship Positions

Amavisti

Last reported at 2017-May-19 14:00 UTC. Time now 2017-Jun-25 20:41 UTC.
Position N 27°52' W 015°16'.
Warning: this ship's position is 37 days out of date.

Length 116 m; draft 7 m.

Type: Cargo ship. MMSI: 305086000.

Date/timePositionNaut miles runAvg speedWind from/ knotsBaromVisibWave heightAir tempDewpointWater temp
2017-May-19 14:00N 27°52' W 015°16'510.0
2017-May-19 13:30N 27°57' W 015°16'510.1
2017-May-19 13:00N 28°02' W 015°15'4 7.6
2017-May-19 12:30N 28°05' W 015°17'4 8.7
2017-May-19 12:00N 28°06' W 015°22'3 6.8
2017-May-19 11:30N 28°08' W 015°25'0 0.1
2017-May-19 11:00N 28°08' W 015°25'0 0.0
2017-May-19 10:29N 28°08' W 015°25'0 0.0
2017-May-19 09:58N 28°08' W 015°25'0 0.0
2017-May-19 09:28N 28°08' W 015°25'0 0.0
2017-May-19 08:58N 28°08' W 015°25'0 0.0
2017-May-19 08:28N 28°08' W 015°25'0 0.0
2017-May-19 07:49N 28°08' W 015°25'0 0.0
2017-May-19 07:19N 28°08' W 015°25'0 0.0
2017-May-19 06:53N 28°08' W 015°25'0 0.0
2017-May-19 06:19N 28°08' W 015°25'0 0.0
2017-May-19 05:53N 28°08' W 015°25'0 0.0
2017-May-19 05:22N 28°08' W 015°25'0 0.4
2017-May-19 05:01N 28°08' W 015°25'2 3.8
2017-May-19 04:31N 28°07' W 015°23'3 6.4
2017-May-19 04:00N 28°09' W 015°20'4 8.2
2017-May-19 03:30N 28°12' W 015°17'4 8.3
2017-May-19 03:00N 28°14' W 015°13'4 8.2
2017-May-19 02:30N 28°17' W 015°10'4 8.5
2017-May-19 02:00N 28°20' W 015°06'4 8.7
2017-May-19 01:30N 28°22' W 015°02'4 8.9
2017-May-19 01:00N 28°26' W 014°59'5 9.3
2017-May-19 00:30N 28°30' W 014°57'5 9.1
2017-May-19 00:00N 28°34' W 014°55'5 9.1
2017-May-18 23:30N 28°39' W 014°53'5 9.1
2017-May-18 23:00N 28°43' W 014°52'5 9.2
2017-May-18 22:30N 28°47' W 014°50'5 9.2
2017-May-18 22:00N 28°52' W 014°48'5 9.2
2017-May-18 21:30N 28°56' W 014°47'5 9.2
2017-May-18 20:55N 29°01' W 014°44'4 9.1
2017-May-18 20:30N 29°04' W 014°42'11 9.3
2017-May-18 19:22N 29°14' W 014°38'5 9.4
2017-May-18 18:50N 29°19' W 014°36'18 9.1
2017-May-18 16:52N 29°36' W 014°30'7 8.9
2017-May-18 16:08N 29°42' W 014°28'1 8.6
2017-May-18 16:01N 29°43' W 014°28'5 8.5
2017-May-18 15:24N 29°48' W 014°27'9 9.0
2017-May-18 14:27N 29°57' W 014°24'303 9.6
2017-May-17 06:43N 34°48' W 012°47'2 9.2
2017-May-17 06:30N 34°50' W 012°46'12 8.9
2017-May-17 05:08N 35°02' W 012°42'2 9.0
2017-May-17 04:58N 35°04' W 012°41'22 9.2
2017-May-17 02:31N 35°25' W 012°34'0 9.2
2017-May-17 02:30N 35°25' W 012°34'5 9.3
2017-May-17 01:59N 35°30' W 012°33'5 9.5
2017-May-17 01:25N 35°35' W 012°31'4 9.5
2017-May-17 01:00N 35°39' W 012°29'5 9.7
2017-May-17 00:30N 35°44' W 012°28'5 9.3
2017-May-17 00:00N 35°48' W 012°27'5 9.3
2017-May-16 23:30N 35°53' W 012°26'5 9.4
2017-May-16 23:00N 35°57' W 012°24'5 9.7
2017-May-16 22:30N 36°02' W 012°22'5 9.8
2017-May-16 21:58N 36°07' W 012°20'5 9.7
2017-May-16 21:28N 36°12' W 012°19'5 9.7
2017-May-16 20:55N 36°17' W 012°17'14 9.7
2017-May-16 19:30N 36°30' W 012°12'42 9.8
2017-May-16 15:10N 37°11' W 011°57'2 9.6
2017-May-16 15:00N 37°12' W 011°56'18 9.7
2017-May-16 13:08N 37°30' W 011°51'2 7.5
2017-May-16 12:51N 37°32' W 011°50'8010.1
2017-May-16 04:57N 38°48' W 011°22'710.0
2017-May-16 04:14N 38°55' W 011°19'210.1
2017-May-16 04:00N 38°58' W 011°19'6 9.9
2017-May-16 03:27N 39°03' W 011°17'5 9.7
2017-May-16 02:57N 39°08' W 011°15'4 9.7
2017-May-16 02:30N 39°12' W 011°14'  
2017-May-12 14:13N 49°45' W 003°32'5 4.9
2017-May-12 13:12N 49°48' W 003°26'210.8
2017-May-12 13:00N 49°49' W 003°23'510.7
2017-May-12 12:30N 49°52' W 003°16'610.5
2017-May-12 11:58N 49°54' W 003°08'510.3
2017-May-12 11:30N 49°56' W 003°01'5 9.8
2017-May-12 11:00N 49°59' W 002°55'4 8.8
2017-May-12 10:30N 50°00' W 002°48'4 8.5
2017-May-12 10:01N 50°02' W 002°42'4 8.1
2017-May-12 09:30N 50°03' W 002°36'9210.1
2017-May-12 00:24N 50°28' W 000°18'410.1
2017-May-11 23:59N 50°29' W 000°12'5 9.7
2017-May-11 23:31N 50°31' W 000°05'5 9.1
2017-May-11 23:00N 50°32' E 000°02'4 8.6
2017-May-11 22:30N 50°33' E 000°09'5 8.1
2017-May-11 21:54N 50°35' E 000°16'3 7.8
2017-May-11 21:31N 50°36' E 000°21'4 7.8
2017-May-11 21:01N 50°37' E 000°27'4 8.3
2017-May-11 20:30N 50°38' E 000°33'5 9.0
2017-May-11 20:00N 50°41' E 000°39'5 9.9
2017-May-11 19:31N 50°43' E 000°46'510.9
2017-May-11 19:00N 50°46' E 000°53'611.3
2017-May-11 18:29N 50°50' E 001°00'611.8
2017-May-11 18:00N 50°54' E 001°07'611.7
2017-May-11 17:27N 50°58' E 001°15'511.5
2017-May-11 17:00N 51°01' E 001°21'510.8
2017-May-11 16:30N 51°04' E 001°28'5 9.9
2017-May-11 16:01N 51°07' E 001°34'4 8.9
2017-May-11 15:31N 51°10' E 001°39'4 8.6
2017-May-11 15:00N 51°13' E 001°45'8 8.1
2017-May-11 14:01N 51°20' E 001°51'4 8.0
2017-May-11 13:31N 51°24' E 001°53'4 8.3
2017-May-11 13:01N 51°27' E 001°57'5 9.1
2017-May-11 12:31N 51°31' E 002°02'5 9.4
2017-May-11 12:01N 51°34' E 002°07'5 9.6
2017-May-11 11:31N 51°37' E 002°13'510.2
2017-May-11 11:01N 51°41' E 002°18'611.0
2017-May-11 10:30N 51°45' E 002°24'611.4
2017-May-11 10:00N 51°50' E 002°30'611.7
2017-May-11 09:30N 51°54' E 002°36'611.8
2017-May-11 09:01N 51°59' E 002°42'611.9
2017-May-11 08:30N 52°03' E 002°48'611.7
2017-May-11 08:00N 52°08' E 002°54'611.5
2017-May-11 07:30N 52°12' E 003°00'611.1
2017-May-11 07:00N 52°17' E 003°05'510.1
2017-May-11 06:30N 52°21' E 003°11'510.0
2017-May-11 06:00N 52°25' E 003°16'5 9.6
2017-May-11 05:30N 52°29' E 003°21'5 9.3
2017-May-11 05:00N 52°32' E 003°25'5 9.0
2017-May-11 04:30N 52°36' E 003°30'4 8.8
2017-May-11 03:59N 52°39' E 003°34'4 8.7
2017-May-11 03:28N 52°43' E 003°39'4 8.5
2017-May-11 02:58N 52°46' E 003°43'4 8.6
2017-May-11 02:29N 52°49' E 003°48'4 9.0
2017-May-11 02:00N 52°52' E 003°53'5 9.5
2017-May-11 01:26N 52°56' E 003°59'410.2
2017-May-11 01:00N 52°60' E 004°04'510.8
2017-May-11 00:30N 53°03' E 004°11'611.0
2017-May-11 00:00N 53°07' E 004°18'611.1
2017-May-10 23:29N 53°11' E 004°23'  
Track history (hours):
 
Tides and Currents Weather Stations Pressure Air Temp Water Temp Dewpoint Dewpoint Depression Visibility Wind Speed Wind Dir Waves Ship Positions

Amavisti

Last reported at 2017-May-19 14:00 UTC. Time now 2017-Jun-25 20:41 UTC.
Position N 27°52' W 015°16'.
Warning: this ship's position is 37 days out of date.

Length 116 m; draft 7 m.

Type: Cargo ship. MMSI: 305086000.

Date/timePositionNaut miles runAvg speedWind from/ knotsBaromVisibWave heightAir tempDewpointWater temp
2017-May-19 14:00N 27°52' W 015°16'510.0
2017-May-19 13:30N 27°57' W 015°16'510.1
2017-May-19 13:00N 28°02' W 015°15'4 7.6
2017-May-19 12:30N 28°05' W 015°17'4 8.7
2017-May-19 12:00N 28°06' W 015°22'3 6.8
2017-May-19 11:30N 28°08' W 015°25'0 0.1
2017-May-19 11:00N 28°08' W 015°25'0 0.0
2017-May-19 10:29N 28°08' W 015°25'0 0.0
2017-May-19 09:58N 28°08' W 015°25'0 0.0
2017-May-19 09:28N 28°08' W 015°25'0 0.0
2017-May-19 08:58N 28°08' W 015°25'0 0.0
2017-May-19 08:28N 28°08' W 015°25'0 0.0
2017-May-19 07:49N 28°08' W 015°25'0 0.0
2017-May-19 07:19N 28°08' W 015°25'0 0.0
2017-May-19 06:53N 28°08' W 015°25'0 0.0
2017-May-19 06:19N 28°08' W 015°25'0 0.0
2017-May-19 05:53N 28°08' W 015°25'0 0.0
2017-May-19 05:22N 28°08' W 015°25'0 0.4
2017-May-19 05:01N 28°08' W 015°25'2 3.8
2017-May-19 04:31N 28°07' W 015°23'3 6.4
2017-May-19 04:00N 28°09' W 015°20'4 8.2
2017-May-19 03:30N 28°12' W 015°17'4 8.3
2017-May-19 03:00N 28°14' W 015°13'4 8.2
2017-May-19 02:30N 28°17' W 015°10'4 8.5
2017-May-19 02:00N 28°20' W 015°06'4 8.7
2017-May-19 01:30N 28°22' W 015°02'4 8.9
2017-May-19 01:00N 28°26' W 014°59'5 9.3
2017-May-19 00:30N 28°30' W 014°57'5 9.1
2017-May-19 00:00N 28°34' W 014°55'5 9.1
2017-May-18 23:30N 28°39' W 014°53'5 9.1
2017-May-18 23:00N 28°43' W 014°52'5 9.2
2017-May-18 22:30N 28°47' W 014°50'5 9.2
2017-May-18 22:00N 28°52' W 014°48'5 9.2
2017-May-18 21:30N 28°56' W 014°47'5 9.2
2017-May-18 20:55N 29°01' W 014°44'4 9.1
2017-May-18 20:30N 29°04' W 014°42'11 9.3
2017-May-18 19:22N 29°14' W 014°38'5 9.4
2017-May-18 18:50N 29°19' W 014°36'18 9.1
2017-May-18 16:52N 29°36' W 014°30'7 8.9
2017-May-18 16:08N 29°42' W 014°28'1 8.6
2017-May-18 16:01N 29°43' W 014°28'5 8.5
2017-May-18 15:24N 29°48' W 014°27'9 9.0
2017-May-18 14:27N 29°57' W 014°24'303 9.6
2017-May-17 06:43N 34°48' W 012°47'2 9.2
2017-May-17 06:30N 34°50' W 012°46'12 8.9
2017-May-17 05:08N 35°02' W 012°42'2 9.0
2017-May-17 04:58N 35°04' W 012°41'22 9.2
2017-May-17 02:31N 35°25' W 012°34'0 9.2
2017-May-17 02:30N 35°25' W 012°34'5 9.3
2017-May-17 01:59N 35°30' W 012°33'5 9.5
2017-May-17 01:25N 35°35' W 012°31'4 9.5
2017-May-17 01:00N 35°39' W 012°29'5 9.7
2017-May-17 00:30N 35°44' W 012°28'5 9.3
2017-May-17 00:00N 35°48' W 012°27'5 9.3
2017-May-16 23:30N 35°53' W 012°26'5 9.4
2017-May-16 23:00N 35°57' W 012°24'5 9.7
2017-May-16 22:30N 36°02' W 012°22'5 9.8
2017-May-16 21:58N 36°07' W 012°20'5 9.7
2017-May-16 21:28N 36°12' W 012°19'5 9.7
2017-May-16 20:55N 36°17' W 012°17'14 9.7
2017-May-16 19:30N 36°30' W 012°12'42 9.8
2017-May-16 15:10N 37°11' W 011°57'2 9.6
2017-May-16 15:00N 37°12' W 011°56'18 9.7
2017-May-16 13:08N 37°30' W 011°51'2 7.5
2017-May-16 12:51N 37°32' W 011°50'8010.1
2017-May-16 04:57N 38°48' W 011°22'710.0
2017-May-16 04:14N 38°55' W 011°19'210.1
2017-May-16 04:00N 38°58' W 011°19'6 9.9
2017-May-16 03:27N 39°03' W 011°17'5 9.7
2017-May-16 02:57N 39°08' W 011°15'4 9.7
2017-May-16 02:30N 39°12' W 011°14'  
2017-May-12 14:13N 49°45' W 003°32'5 4.9
2017-May-12 13:12N 49°48' W 003°26'210.8
2017-May-12 13:00N 49°49' W 003°23'510.7
2017-May-12 12:30N 49°52' W 003°16'610.5
2017-May-12 11:58N 49°54' W 003°08'510.3
2017-May-12 11:30N 49°56' W 003°01'5 9.8
2017-May-12 11:00N 49°59' W 002°55'4 8.8
2017-May-12 10:30N 50°00' W 002°48'4 8.5
2017-May-12 10:01N 50°02' W 002°42'4 8.1
2017-May-12 09:30N 50°03' W 002°36'9210.1
2017-May-12 00:24N 50°28' W 000°18'410.1
2017-May-11 23:59N 50°29' W 000°12'5 9.7
2017-May-11 23:31N 50°31' W 000°05'5 9.1
2017-May-11 23:00N 50°32' E 000°02'4 8.6
2017-May-11 22:30N 50°33' E 000°09'5 8.1
2017-May-11 21:54N 50°35' E 000°16'3 7.8
2017-May-11 21:31N 50°36' E 000°21'4 7.8
2017-May-11 21:01N 50°37' E 000°27'4 8.3
2017-May-11 20:30N 50°38' E 000°33'5 9.0
2017-May-11 20:00N 50°41' E 000°39'5 9.9
2017-May-11 19:31N 50°43' E 000°46'510.9
2017-May-11 19:00N 50°46' E 000°53'611.3
2017-May-11 18:29N 50°50' E 001°00'611.8
2017-May-11 18:00N 50°54' E 001°07'611.7
2017-May-11 17:27N 50°58' E 001°15'511.5
2017-May-11 17:00N 51°01' E 001°21'510.8
2017-May-11 16:30N 51°04' E 001°28'5 9.9
2017-May-11 16:01N 51°07' E 001°34'4 8.9
2017-May-11 15:31N 51°10' E 001°39'4 8.6
2017-May-11 15:00N 51°13' E 001°45'8 8.1
2017-May-11 14:01N 51°20' E 001°51'4 8.0
2017-May-11 13:31N 51°24' E 001°53'4 8.3
2017-May-11 13:01N 51°27' E 001°57'5 9.1
2017-May-11 12:31N 51°31' E 002°02'5 9.4
2017-May-11 12:01N 51°34' E 002°07'5 9.6
2017-May-11 11:31N 51°37' E 002°13'510.2
2017-May-11 11:01N 51°41' E 002°18'611.0
2017-May-11 10:30N 51°45' E 002°24'611.4
2017-May-11 10:00N 51°50' E 002°30'611.7
2017-May-11 09:30N 51°54' E 002°36'611.8
2017-May-11 09:01N 51°59' E 002°42'611.9
2017-May-11 08:30N 52°03' E 002°48'611.7
2017-May-11 08:00N 52°08' E 002°54'611.5
2017-May-11 07:30N 52°12' E 003°00'611.1
2017-May-11 07:00N 52°17' E 003°05'510.1
2017-May-11 06:30N 52°21' E 003°11'510.0
2017-May-11 06:00N 52°25' E 003°16'5 9.6
2017-May-11 05:30N 52°29' E 003°21'5 9.3
2017-May-11 05:00N 52°32' E 003°25'5 9.0
2017-May-11 04:30N 52°36' E 003°30'4 8.8
2017-May-11 03:59N 52°39' E 003°34'4 8.7
2017-May-11 03:28N 52°43' E 003°39'4 8.5
2017-May-11 02:58N 52°46' E 003°43'4 8.6
2017-May-11 02:29N 52°49' E 003°48'4 9.0
2017-May-11 02:00N 52°52' E 003°53'5 9.5
2017-May-11 01:26N 52°56' E 003°59'410.2
2017-May-11 01:00N 52°60' E 004°04'510.8
2017-May-11 00:30N 53°03' E 004°11'611.0
2017-May-11 00:00N 53°07' E 004°18'611.1
2017-May-10 23:29N 53°11' E 004°23'  

Dump ship's entire track history